sensor_id;sensor_type;location;lat;lon;timestamp;pressure;altitude;pressure_sealevel;temperature;humidity
13015;BME280;6573;57.696;11.950;2023-02-04T00:00:34;103033.19;;;1.51;100.00
13015;BME280;6573;57.696;11.950;2023-02-04T00:03:04;103035.66;;;1.50;100.00
13015;BME280;6573;57.696;11.950;2023-02-04T00:05:33;103042.00;;;1.42;100.00
13015;BME280;6573;57.696;11.950;2023-02-04T00:08:01;103045.41;;;1.41;100.00
13015;BME280;6573;57.696;11.950;2023-02-04T00:10:32;103064.34;;;1.40;100.00
13015;BME280;6573;57.696;11.950;2023-02-04T00:13:01;103069.28;;;1.37;100.00
13015;BME280;6573;57.696;11.950;2023-02-04T00:15:30;103072.56;;;1.46;100.00
13015;BME280;6573;57.696;11.950;2023-02-04T00:17:59;103078.22;;;1.65;100.00
13015;BME280;6573;57.696;11.950;2023-02-04T00:20:28;103074.25;;;1.70;100.00
13015;BME280;6573;57.696;11.950;2023-02-04T00:22:56;103088.81;;;1.68;100.00
13015;BME280;6573;57.696;11.950;2023-02-04T00:25:25;103088.19;;;1.59;100.00
13015;BME280;6573;57.696;11.950;2023-02-04T00:27:53;103093.38;;;1.59;100.00
13015;BME280;6573;57.696;11.950;2023-02-04T00:30:22;103093.19;;;1.69;100.00
13015;BME280;6573;57.696;11.950;2023-02-04T00:32:50;103095.22;;;1.73;100.00
13015;BME280;6573;57.696;11.950;2023-02-04T00:35:23;103083.25;;;1.75;100.00
13015;BME280;6573;57.696;11.950;2023-02-04T00:37:51;103082.03;;;1.70;100.00
13015;BME280;6573;57.696;11.950;2023-02-04T00:40:19;103092.03;;;1.77;100.00
13015;BME280;6573;57.696;11.950;2023-02-04T00:42:48;103101.84;;;1.81;100.00
13015;BME280;6573;57.696;11.950;2023-02-04T00:45:16;103105.47;;;1.71;100.00
13015;BME280;6573;57.696;11.950;2023-02-04T00:47:44;103113.22;;;1.58;100.00
13015;BME280;6573;57.696;11.950;2023-02-04T00:50:12;103124.91;;;1.65;100.00
13015;BME280;6573;57.696;11.950;2023-02-04T00:52:42;103126.72;;;1.66;100.00
13015;BME280;6573;57.696;11.950;2023-02-04T00:55:11;103142.47;;;1.69;100.00
13015;BME280;6573;57.696;11.950;2023-02-04T00:57:41;103138.66;;;1.64;100.00
13015;BME280;6573;57.696;11.950;2023-02-04T01:00:11;103139.09;;;1.70;100.00
13015;BME280;6573;57.696;11.950;2023-02-04T01:02:40;103148.84;;;1.61;100.00
13015;BME280;6573;57.696;11.950;2023-02-04T01:05:08;103155.03;;;1.63;100.00
13015;BME280;6573;57.696;11.950;2023-02-04T01:07:37;103169.59;;;1.61;100.00
13015;BME280;6573;57.696;11.950;2023-02-04T01:10:07;103161.69;;;1.59;100.00
13015;BME280;6573;57.696;11.950;2023-02-04T01:12:37;103162.38;;;1.57;100.00
13015;BME280;6573;57.696;11.950;2023-02-04T01:15:06;103176.53;;;1.49;100.00
13015;BME280;6573;57.696;11.950;2023-02-04T01:17:37;103163.09;;;1.43;100.00
13015;BME280;6573;57.696;11.950;2023-02-04T01:20:06;103182.25;;;1.45;100.00
13015;BME280;6573;57.696;11.950;2023-02-04T01:22:34;103178.44;;;1.40;100.00
13015;BME280;6573;57.696;11.950;2023-02-04T01:25:04;103197.41;;;1.39;100.00
13015;BME280;6573;57.696;11.950;2023-02-04T01:27:33;103197.16;;;1.36;100.00
13015;BME280;6573;57.696;11.950;2023-02-04T01:30:02;103184.06;;;1.46;100.00
13015;BME280;6573;57.696;11.950;2023-02-04T01:32:30;103203.00;;;1.45;100.00
13015;BME280;6573;57.696;11.950;2023-02-04T01:34:59;103204.59;;;1.43;100.00
13015;BME280;6573;57.696;11.950;2023-02-04T01:37:27;103207.41;;;1.34;100.00
13015;BME280;6573;57.696;11.950;2023-02-04T01:39:56;103213.84;;;1.27;100.00
13015;BME280;6573;57.696;11.950;2023-02-04T01:42:25;103233.16;;;1.31;100.00
13015;BME280;6573;57.696;11.950;2023-02-04T01:44:55;103224.22;;;1.27;100.00
13015;BME280;6573;57.696;11.950;2023-02-04T01:47:24;103241.13;;;1.22;100.00
13015;BME280;6573;57.696;11.950;2023-02-04T01:49:57;103241.38;;;1.25;100.00
13015;BME280;6573;57.696;11.950;2023-02-04T01:52:26;103249.72;;;1.21;100.00
13015;BME280;6573;57.696;11.950;2023-02-04T01:54:56;103254.44;;;1.15;100.00
13015;BME280;6573;57.696;11.950;2023-02-04T01:57:24;103252.44;;;1.11;100.00
13015;BME280;6573;57.696;11.950;2023-02-04T01:59:55;103254.53;;;1.05;100.00
13015;BME280;6573;57.696;11.950;2023-02-04T02:02:38;103268.84;;;1.00;100.00
13015;BME280;6573;57.696;11.950;2023-02-04T02:05:09;103273.59;;;0.94;100.00
13015;BME280;6573;57.696;11.950;2023-02-04T02:07:39;103276.50;;;0.87;100.00
13015;BME280;6573;57.696;11.950;2023-02-04T02:10:10;103281.47;;;0.84;100.00
13015;BME280;6573;57.696;11.950;2023-02-04T02:12:39;103286.31;;;0.91;100.00
13015;BME280;6573;57.696;11.950;2023-02-04T02:15:10;103291.16;;;0.98;100.00
13015;BME280;6573;57.696;11.950;2023-02-04T02:17:40;103289.34;;;0.97;100.00
13015;BME280;6573;57.696;11.950;2023-02-04T02:20:10;103298.69;;;0.95;100.00
13015;BME280;6573;57.696;11.950;2023-02-04T02:22:46;103297.94;;;0.96;100.00
13015;BME280;6573;57.696;11.950;2023-02-04T02:25:19;103309.75;;;0.93;100.00
13015;BME280;6573;57.696;11.950;2023-02-04T02:27:48;103314.09;;;0.82;100.00
13015;BME280;6573;57.696;11.950;2023-02-04T02:30:17;103322.69;;;0.81;100.00
13015;BME280;6573;57.696;11.950;2023-02-04T02:32:46;103324.00;;;0.76;100.00
13015;BME280;6573;57.696;11.950;2023-02-04T02:35:16;103337.97;;;0.78;100.00
13015;BME280;6573;57.696;11.950;2023-02-04T02:37:44;103344.97;;;0.79;100.00
13015;BME280;6573;57.696;11.950;2023-02-04T02:40:13;103348.59;;;0.81;100.00
13015;BME280;6573;57.696;11.950;2023-02-04T02:42:44;103357.63;;;0.86;100.00
13015;BME280;6573;57.696;11.950;2023-02-04T02:45:20;103352.28;;;0.73;100.00
13015;BME280;6573;57.696;11.950;2023-02-04T02:47:49;103363.53;;;0.74;100.00
13015;BME280;6573;57.696;11.950;2023-02-04T02:50:21;103376.25;;;0.71;100.00
13015;BME280;6573;57.696;11.950;2023-02-04T02:52:50;103383.91;;;0.69;100.00
13015;BME280;6573;57.696;11.950;2023-02-04T02:55:21;103388.16;;;0.57;100.00
13015;BME280;6573;57.696;11.950;2023-02-04T02:57:52;103388.91;;;0.56;100.00
13015;BME280;6573;57.696;11.950;2023-02-04T03:00:23;103398.50;;;0.57;100.00
13015;BME280;6573;57.696;11.950;2023-02-04T03:02:55;103407.72;;;0.53;100.00
13015;BME280;6573;57.696;11.950;2023-02-04T03:05:27;103417.81;;;0.50;100.00
13015;BME280;6573;57.696;11.950;2023-02-04T03:07:56;103394.75;;;0.32;100.00
13015;BME280;6573;57.696;11.950;2023-02-04T03:10:24;103426.78;;;0.44;100.00
13015;BME280;6573;57.696;11.950;2023-02-04T03:12:54;103430.81;;;0.40;100.00
13015;BME280;6573;57.696;11.950;2023-02-04T03:15:23;103432.59;;;0.51;100.00
13015;BME280;6573;57.696;11.950;2023-02-04T03:17:52;103434.97;;;0.60;100.00
13015;BME280;6573;57.696;11.950;2023-02-04T03:20:23;103437.63;;;0.50;100.00
13015;BME280;6573;57.696;11.950;2023-02-04T03:22:52;103437.63;;;0.50;100.00
13015;BME280;6573;57.696;11.950;2023-02-04T03:25:22;103442.34;;;0.44;100.00
13015;BME280;6573;57.696;11.950;2023-02-04T03:27:54;103447.50;;;0.44;100.00
13015;BME280;6573;57.696;11.950;2023-02-04T03:30:23;103458.94;;;0.36;100.00
13015;BME280;6573;57.696;11.950;2023-02-04T03:32:52;103467.44;;;0.45;100.00
13015;BME280;6573;57.696;11.950;2023-02-04T03:35:20;103464.84;;;0.45;100.00
13015;BME280;6573;57.696;11.950;2023-02-04T03:37:49;103473.41;;;0.44;100.00
13015;BME280;6573;57.696;11.950;2023-02-04T03:40:18;103465.38;;;0.41;100.00
13015;BME280;6573;57.696;11.950;2023-02-04T03:42:46;103478.59;;;0.44;100.00
13015;BME280;6573;57.696;11.950;2023-02-04T03:45:16;103486.88;;;0.40;100.00
13015;BME280;6573;57.696;11.950;2023-02-04T03:47:45;103491.56;;;0.34;100.00
13015;BME280;6573;57.696;11.950;2023-02-04T03:50:13;103505.28;;;0.33;100.00
13015;BME280;6573;57.696;11.950;2023-02-04T03:52:42;103497.81;;;0.26;100.00
13015;BME280;6573;57.696;11.950;2023-02-04T03:55:11;103511.38;;;0.33;100.00
13015;BME280;6573;57.696;11.950;2023-02-04T03:57:39;103519.25;;;0.35;100.00
13015;BME280;6573;57.696;11.950;2023-02-04T04:00:09;103517.16;;;0.41;100.00
13015;BME280;6573;57.696;11.950;2023-02-04T04:02:39;103517.94;;;0.40;100.00
13015;BME280;6573;57.696;11.950;2023-02-04T04:05:08;103517.47;;;0.34;100.00
13015;BME280;6573;57.696;11.950;2023-02-04T04:07:37;103535.88;;;0.27;100.00
13015;BME280;6573;57.696;11.950;2023-02-04T04:10:06;103537.16;;;0.22;100.00
13015;BME280;6573;57.696;11.950;2023-02-04T04:12:34;103544.94;;;0.22;100.00
13015;BME280;6573;57.696;11.950;2023-02-04T04:15:03;103556.97;;;0.21;100.00
13015;BME280;6573;57.696;11.950;2023-02-04T04:17:31;103562.25;;;0.23;100.00
13015;BME280;6573;57.696;11.950;2023-02-04T04:20:01;103562.06;;;0.10;100.00
13015;BME280;6573;57.696;11.950;2023-02-04T04:22:29;103581.44;;;0.15;100.00
13015;BME280;6573;57.696;11.950;2023-02-04T04:24:58;103584.81;;;0.14;100.00
13015;BME280;6573;57.696;11.950;2023-02-04T04:27:26;103599.81;;;0.08;100.00
13015;BME280;6573;57.696;11.950;2023-02-04T04:29:56;103594.63;;;0.08;100.00
13015;BME280;6573;57.696;11.950;2023-02-04T04:32:24;103595.69;;;-0.01;100.00
13015;BME280;6573;57.696;11.950;2023-02-04T04:34:53;103593.88;;;-0.02;100.00
13015;BME280;6573;57.696;11.950;2023-02-04T04:37:22;103603.97;;;-0.05;100.00
13015;BME280;6573;57.696;11.950;2023-02-04T04:39:51;103608.88;;;0.03;100.00
13015;BME280;6573;57.696;11.950;2023-02-04T04:42:19;103612.78;;;-0.03;100.00
13015;BME280;6573;57.696;11.950;2023-02-04T04:44:48;103612.91;;;-0.01;100.00
13015;BME280;6573;57.696;11.950;2023-02-04T04:47:16;103623.78;;;-0.05;100.00
13015;BME280;6573;57.696;11.950;2023-02-04T04:49:45;103628.03;;;-0.06;100.00
13015;BME280;6573;57.696;11.950;2023-02-04T04:52:16;103639.03;;;-0.08;100.00
13015;BME280;6573;57.696;11.950;2023-02-04T04:54:47;103640.97;;;-0.16;100.00
13015;BME280;6573;57.696;11.950;2023-02-04T04:57:16;103639.66;;;-0.21;100.00
13015;BME280;6573;57.696;11.950;2023-02-04T04:59:44;103638.88;;;-0.20;100.00
13015;BME280;6573;57.696;11.950;2023-02-04T05:02:12;103638.88;;;-0.20;100.00
13015;BME280;6573;57.696;11.950;2023-02-04T05:04:40;103636.72;;;-0.15;100.00
13015;BME280;6573;57.696;11.950;2023-02-04T05:07:09;103649.50;;;-0.17;100.00
13015;BME280;6573;57.696;11.950;2023-02-04T05:09:37;103651.31;;;-0.16;100.00
13015;BME280;6573;57.696;11.950;2023-02-04T05:12:07;103644.84;;;-0.21;100.00
13015;BME280;6573;57.696;11.950;2023-02-04T05:14:35;103645.22;;;-0.16;100.00
13015;BME280;6573;57.696;11.950;2023-02-04T05:17:03;103646.91;;;-0.07;100.00
13015;BME280;6573;57.696;11.950;2023-02-04T05:19:31;103661.41;;;-0.19;100.00
13015;BME280;6573;57.696;11.950;2023-02-04T05:22:00;103658.06;;;-0.18;100.00
13015;BME280;6573;57.696;11.950;2023-02-04T05:24:28;103653.53;;;-0.20;100.00
13015;BME280;6573;57.696;11.950;2023-02-04T05:26:57;103662.72;;;-0.04;100.00
13015;BME280;6573;57.696;11.950;2023-02-04T05:29:27;103658.44;;;-0.03;100.00
13015;BME280;6573;57.696;11.950;2023-02-04T05:31:55;103668.66;;;0.06;100.00
13015;BME280;6573;57.696;11.950;2023-02-04T05:34:23;103668.81;;;0.07;100.00
13015;BME280;6573;57.696;11.950;2023-02-04T05:36:51;103661.44;;;0.12;100.00
13015;BME280;6573;57.696;11.950;2023-02-04T05:39:22;103645.13;;;-0.08;100.00
13015;BME280;6573;57.696;11.950;2023-02-04T05:41:51;103650.53;;;-0.05;100.00
13015;BME280;6573;57.696;11.950;2023-02-04T05:44:19;103679.53;;;-0.09;100.00
13015;BME280;6573;57.696;11.950;2023-02-04T05:46:49;103672.28;;;-0.13;100.00
13015;BME280;6573;57.696;11.950;2023-02-04T05:49:17;103686.75;;;-0.05;100.00
13015;BME280;6573;57.696;11.950;2023-02-04T05:51:48;103687.16;;;-0.20;100.00
13015;BME280;6573;57.696;11.950;2023-02-04T05:54:16;103698.63;;;-0.27;100.00
13015;BME280;6573;57.696;11.950;2023-02-04T05:56:46;103695.00;;;-0.29;100.00
13015;BME280;6573;57.696;11.950;2023-02-04T05:59:15;103677.88;;;-0.47;100.00
13015;BME280;6573;57.696;11.950;2023-02-04T06:01:43;103702.47;;;-0.42;100.00
13015;BME280;6573;57.696;11.950;2023-02-04T06:04:13;103705.22;;;-0.40;100.00
13015;BME280;6573;57.696;11.950;2023-02-04T06:06:42;103712.78;;;-0.52;100.00
13015;BME280;6573;57.696;11.950;2023-02-04T06:09:11;103698.78;;;-0.64;100.00
13015;BME280;6573;57.696;11.950;2023-02-04T06:11:40;103725.97;;;-0.49;100.00
13015;BME280;6573;57.696;11.950;2023-02-04T06:14:08;103723.63;;;-0.56;100.00
13015;BME280;6573;57.696;11.950;2023-02-04T06:16:37;103724.25;;;-0.58;100.00
13015;BME280;6573;57.696;11.950;2023-02-04T06:19:05;103742.50;;;-0.57;100.00
13015;BME280;6573;57.696;11.950;2023-02-04T06:21:34;103740.97;;;-0.55;100.00
13015;BME280;6573;57.696;11.950;2023-02-04T06:24:03;103739.69;;;-0.50;100.00
13015;BME280;6573;57.696;11.950;2023-02-04T06:26:32;103739.69;;;-0.50;100.00
13015;BME280;6573;57.696;11.950;2023-02-04T06:29:00;103744.59;;;-0.53;100.00
13015;BME280;6573;57.696;11.950;2023-02-04T06:31:29;103748.72;;;-0.55;100.00
13015;BME280;6573;57.696;11.950;2023-02-04T06:33:57;103766.81;;;-0.55;100.00
13015;BME280;6573;57.696;11.950;2023-02-04T06:36:27;103758.00;;;-0.57;100.00
13015;BME280;6573;57.696;11.950;2023-02-04T06:38:57;103761.03;;;-0.52;100.00
13015;BME280;6573;57.696;11.950;2023-02-04T06:41:25;103774.78;;;-0.62;100.00
13015;BME280;6573;57.696;11.950;2023-02-04T06:43:54;103775.00;;;-0.69;100.00
13015;BME280;6573;57.696;11.950;2023-02-04T06:46:22;103770.34;;;-0.73;100.00
13015;BME280;6573;57.696;11.950;2023-02-04T06:48:50;103775.78;;;-0.70;100.00
13015;BME280;6573;57.696;11.950;2023-02-04T06:51:18;103788.56;;;-0.72;100.00
13015;BME280;6573;57.696;11.950;2023-02-04T06:53:47;103778.78;;;-0.66;100.00
13015;BME280;6573;57.696;11.950;2023-02-04T06:56:17;103787.41;;;-0.75;100.00
13015;BME280;6573;57.696;11.950;2023-02-04T06:58:45;103784.31;;;-0.71;100.00
13015;BME280;6573;57.696;11.950;2023-02-04T07:01:13;103793.84;;;-0.80;100.00
13015;BME280;6573;57.696;11.950;2023-02-04T07:03:42;103797.22;;;-0.71;100.00
13015;BME280;6573;57.696;11.950;2023-02-04T07:06:10;103798.56;;;-0.66;100.00
13015;BME280;6573;57.696;11.950;2023-02-04T07:08:38;103802.81;;;-0.67;100.00
13015;BME280;6573;57.696;11.950;2023-02-04T07:11:07;103781.13;;;-0.87;100.00
13015;BME280;6573;57.696;11.950;2023-02-04T07:13:36;103818.41;;;-0.75;100.00
13015;BME280;6573;57.696;11.950;2023-02-04T07:16:05;103815.31;;;-0.71;100.00
13015;BME280;6573;57.696;11.950;2023-02-04T07:18:34;103812.47;;;-0.74;100.00
13015;BME280;6573;57.696;11.950;2023-02-04T07:21:02;103817.44;;;-0.67;100.00
13015;BME280;6573;57.696;11.950;2023-02-04T07:23:31;103823.00;;;-0.81;100.00
13015;BME280;6573;57.696;11.950;2023-02-04T07:25:59;103824.84;;;-0.80;100.00
13015;BME280;6573;57.696;11.950;2023-02-04T07:28:28;103816.31;;;-0.79;100.00
13015;BME280;6573;57.696;11.950;2023-02-04T07:30:58;103822.31;;;-0.70;100.00
13015;BME280;6573;57.696;11.950;2023-02-04T07:33:27;103829.28;;;-0.69;100.00
13015;BME280;6573;57.696;11.950;2023-02-04T07:35:55;103844.78;;;-0.69;100.00
13015;BME280;6573;57.696;11.950;2023-02-04T07:38:23;103815.59;;;-0.68;100.00
13015;BME280;6573;57.696;11.950;2023-02-04T07:40:52;103840.72;;;-0.57;100.00
13015;BME280;6573;57.696;11.950;2023-02-04T07:43:21;103848.47;;;-0.67;100.00
13015;BME280;6573;57.696;11.950;2023-02-04T07:45:49;103847.41;;;-0.88;100.00
13015;BME280;6573;57.696;11.950;2023-02-04T07:48:19;103849.56;;;-0.92;100.00
13015;BME280;6573;57.696;11.950;2023-02-04T07:50:48;103859.91;;;-0.92;100.00
13015;BME280;6573;57.696;11.950;2023-02-04T07:53:16;103848.03;;;-0.90;100.00
13015;BME280;6573;57.696;11.950;2023-02-04T07:55:45;103855.13;;;-0.69;100.00
13015;BME280;6573;57.696;11.950;2023-02-04T07:58:13;103847.88;;;-0.73;100.00
13015;BME280;6573;57.696;11.950;2023-02-04T08:00:42;103857.25;;;-0.65;100.00
13015;BME280;6573;57.696;11.950;2023-02-04T08:03:10;103855.22;;;-0.78;100.00
13015;BME280;6573;57.696;11.950;2023-02-04T08:05:40;103861.41;;;-0.94;100.00
13015;BME280;6573;57.696;11.950;2023-02-04T08:08:08;103867.16;;;-0.88;100.00
13015;BME280;6573;57.696;11.950;2023-02-04T08:10:39;103872.28;;;-0.80;100.00
13015;BME280;6573;57.696;11.950;2023-02-04T08:13:07;103876.81;;;-0.77;100.00
13015;BME280;6573;57.696;11.950;2023-02-04T08:15:35;103874.41;;;-0.84;100.00
13015;BME280;6573;57.696;11.950;2023-02-04T08:18:03;103875.66;;;-0.89;100.00
13015;BME280;6573;57.696;11.950;2023-02-04T08:20:32;103881.69;;;-0.80;100.00
13015;BME280;6573;57.696;11.950;2023-02-04T08:23:02;103883.44;;;-0.71;100.00
13015;BME280;6573;57.696;11.950;2023-02-04T08:25:30;103889.53;;;-0.70;100.00
13015;BME280;6573;57.696;11.950;2023-02-04T08:27:59;103895.00;;;-0.67;100.00
13015;BME280;6573;57.696;11.950;2023-02-04T08:30:27;103890.44;;;-0.70;100.00
13015;BME280;6573;57.696;11.950;2023-02-04T08:32:57;103897.56;;;-0.67;100.00
13015;BME280;6573;57.696;11.950;2023-02-04T08:35:25;103907.13;;;-0.66;100.00
13015;BME280;6573;57.696;11.950;2023-02-04T08:37:53;103911.63;;;-0.55;100.00
13015;BME280;6573;57.696;11.950;2023-02-04T08:40:23;103910.25;;;-0.41;100.00
13015;BME280;6573;57.696;11.950;2023-02-04T08:42:51;103916.34;;;-0.41;100.00
13015;BME280;6573;57.696;11.950;2023-02-04T08:45:20;103919.69;;;-0.42;100.00
13015;BME280;6573;57.696;11.950;2023-02-04T08:47:48;103917.44;;;-0.29;100.00
13015;BME280;6573;57.696;11.950;2023-02-04T08:50:16;103929.19;;;-0.14;100.00
13015;BME280;6573;57.696;11.950;2023-02-04T08:52:45;103922.13;;;-0.25;100.00
13015;BME280;6573;57.696;11.950;2023-02-04T08:55:13;103917.16;;;-0.32;100.00
13015;BME280;6573;57.696;11.950;2023-02-04T08:57:43;103942.81;;;-0.25;100.00
13015;BME280;6573;57.696;11.950;2023-02-04T09:00:12;103936.81;;;-0.34;100.00
13015;BME280;6573;57.696;11.950;2023-02-04T09:02:41;103943.59;;;-0.26;100.00
13015;BME280;6573;57.696;11.950;2023-02-04T09:05:09;103955.22;;;-0.31;100.00
13015;BME280;6573;57.696;11.950;2023-02-04T09:07:37;103958.03;;;-0.38;100.00
13015;BME280;6573;57.696;11.950;2023-02-04T09:10:06;103956.19;;;-0.39;100.00
13015;BME280;6573;57.696;11.950;2023-02-04T09:12:34;103927.66;;;-0.49;100.00
13015;BME280;6573;57.696;11.950;2023-02-04T09:15:04;103948.50;;;-0.29;100.00
13015;BME280;6573;57.696;11.950;2023-02-04T09:17:33;103936.06;;;-0.33;100.00
13015;BME280;6573;57.696;11.950;2023-02-04T09:20:01;103931.28;;;-0.47;100.00
13015;BME280;6573;57.696;11.950;2023-02-04T09:22:29;103947.72;;;-0.46;100.00
13015;BME280;6573;57.696;11.950;2023-02-04T09:24:58;103954.38;;;-0.40;100.00
13015;BME280;6573;57.696;11.950;2023-02-04T09:27:26;103961.06;;;-0.42;100.00
13015;BME280;6573;57.696;11.950;2023-02-04T09:29:55;103940.66;;;-0.39;100.00
13015;BME280;6573;57.696;11.950;2023-02-04T09:32:24;103966.00;;;-0.45;100.00
13015;BME280;6573;57.696;11.950;2023-02-04T09:34:54;103965.69;;;-0.48;100.00
13015;BME280;6573;57.696;11.950;2023-02-04T09:37:22;103967.78;;;-0.44;100.00
13015;BME280;6573;57.696;11.950;2023-02-04T09:39:55;103972.97;;;-0.44;100.00
13015;BME280;6573;57.696;11.950;2023-02-04T09:42:25;103958.56;;;-0.50;100.00
13015;BME280;6573;57.696;11.950;2023-02-04T09:44:53;103963.78;;;-0.59;100.00
13015;BME280;6573;57.696;11.950;2023-02-04T09:47:25;103970.59;;;-0.51;100.00
13015;BME280;6573;57.696;11.950;2023-02-04T09:49:54;103975.34;;;-0.37;100.00
13015;BME280;6573;57.696;11.950;2023-02-04T09:52:27;103969.13;;;-0.20;100.00
13015;BME280;6573;57.696;11.950;2023-02-04T09:54:55;103970.06;;;-0.10;100.00
13015;BME280;6573;57.696;11.950;2023-02-04T09:57:24;103966.66;;;-0.19;100.00
13015;BME280;6573;57.696;11.950;2023-02-04T09:59:53;103976.69;;;-0.13;100.00
13015;BME280;6573;57.696;11.950;2023-02-04T10:02:23;103978.84;;;-0.18;100.00
13015;BME280;6573;57.696;11.950;2023-02-04T10:04:56;103982.19;;;-0.19;100.00
13015;BME280;6573;57.696;11.950;2023-02-04T10:07:25;103975.81;;;-0.22;100.00
13015;BME280;6573;57.696;11.950;2023-02-04T10:09:57;103980.94;;;-0.14;100.00
13015;BME280;6573;57.696;11.950;2023-02-04T10:12:26;103986.69;;;-0.08;100.00
13015;BME280;6573;57.696;11.950;2023-02-04T10:14:55;103974.28;;;-0.02;100.00
13015;BME280;6573;57.696;11.950;2023-02-04T10:17:24;103977.03;;;0.29;100.00
13015;BME280;6573;57.696;11.950;2023-02-04T10:19:54;103964.81;;;1.15;100.00
13015;BME280;6573;57.696;11.950;2023-02-04T10:22:24;103963.50;;;1.61;100.00
13015;BME280;6573;57.696;11.950;2023-02-04T10:24:53;103968.00;;;1.83;100.00
13015;BME280;6573;57.696;11.950;2023-02-04T10:27:21;103964.53;;;1.53;100.00
13015;BME280;6573;57.696;11.950;2023-02-04T10:29:57;103978.75;;;0.97;100.00
13015;BME280;6573;57.696;11.950;2023-02-04T10:32:30;103971.78;;;0.86;100.00
13015;BME280;6573;57.696;11.950;2023-02-04T10:35:02;103976.66;;;0.73;100.00
13015;BME280;6573;57.696;11.950;2023-02-04T10:37:31;103980.78;;;0.71;100.00
13015;BME280;6573;57.696;11.950;2023-02-04T10:40:00;103987.03;;;0.73;100.00
13015;BME280;6573;57.696;11.950;2023-02-04T10:42:30;103982.19;;;0.68;100.00
13015;BME280;6573;57.696;11.950;2023-02-04T10:44:59;103979.75;;;0.69;100.00
13015;BME280;6573;57.696;11.950;2023-02-04T10:47:28;103984.19;;;0.80;100.00
13015;BME280;6573;57.696;11.950;2023-02-04T10:50:01;103987.06;;;0.93;100.00
13015;BME280;6573;57.696;11.950;2023-02-04T10:52:34;103980.56;;;0.78;100.00
13015;BME280;6573;57.696;11.950;2023-02-04T10:55:07;103993.25;;;0.85;100.00
13015;BME280;6573;57.696;11.950;2023-02-04T10:57:39;103991.25;;;1.01;100.00
13015;BME280;6573;57.696;11.950;2023-02-04T11:00:16;103990.19;;;0.89;100.00
13015;BME280;6573;57.696;11.950;2023-02-04T11:02:49;103997.44;;;0.93;100.00
13015;BME280;6573;57.696;11.950;2023-02-04T11:05:22;103993.25;;;0.85;100.00
13015;BME280;6573;57.696;11.950;2023-02-04T11:07:51;104002.34;;;0.90;100.00
13015;BME280;6573;57.696;11.950;2023-02-04T11:10:21;103996.88;;;0.87;100.00
13015;BME280;6573;57.696;11.950;2023-02-04T11:13:00;104010.91;;;0.89;100.00
13015;BME280;6573;57.696;11.950;2023-02-04T11:15:45;104023.88;;;0.99;100.00
13015;BME280;6573;57.696;11.950;2023-02-04T11:18:27;104016.94;;;1.28;100.00
13015;BME280;6573;57.696;11.950;2023-02-04T11:20:58;104012.53;;;1.48;100.00
13015;BME280;6573;57.696;11.950;2023-02-04T11:23:32;104017.84;;;1.39;100.00
13015;BME280;6573;57.696;11.950;2023-02-04T11:26:05;104012.25;;;1.45;100.00
13015;BME280;6573;57.696;11.950;2023-02-04T11:28:54;103993.06;;;1.43;100.00
13015;BME280;6573;57.696;11.950;2023-02-04T11:31:44;104025.50;;;1.48;100.00
13015;BME280;6573;57.696;11.950;2023-02-04T11:34:29;104022.66;;;1.45;100.00
13015;BME280;6573;57.696;11.950;2023-02-04T11:37:27;104021.06;;;1.47;100.00
13015;BME280;6573;57.696;11.950;2023-02-04T11:39:57;104013.06;;;1.34;100.00
13015;BME280;6573;57.696;11.950;2023-02-04T11:42:31;104012.00;;;1.31;100.00
13015;BME280;6573;57.696;11.950;2023-02-04T11:45:13;104022.38;;;1.31;100.00
13015;BME280;6573;57.696;11.950;2023-02-04T11:47:43;104019.78;;;1.52;100.00
13015;BME280;6573;57.696;11.950;2023-02-04T11:50:16;104011.22;;;1.73;100.00
13015;BME280;6573;57.696;11.950;2023-02-04T11:52:47;104013.56;;;1.60;100.00
13015;BME280;6573;57.696;11.950;2023-02-04T11:55:17;104004.75;;;1.58;100.00
13015;BME280;6573;57.696;11.950;2023-02-04T11:57:50;104006.31;;;1.56;100.00
13015;BME280;6573;57.696;11.950;2023-02-04T12:00:20;103996.44;;;1.42;100.00
13015;BME280;6573;57.696;11.950;2023-02-04T12:02:50;104001.88;;;1.45;100.00
13015;BME280;6573;57.696;11.950;2023-02-04T12:05:34;104009.69;;;1.55;100.00
13015;BME280;6573;57.696;11.950;2023-02-04T12:08:25;104009.69;;;1.55;100.00
13015;BME280;6573;57.696;11.950;2023-02-04T12:11:03;104010.22;;;1.61;100.00
13015;BME280;6573;57.696;11.950;2023-02-04T12:13:33;104006.31;;;1.76;100.00
13015;BME280;6573;57.696;11.950;2023-02-04T12:16:04;104001.75;;;1.93;100.00
13015;BME280;6573;57.696;11.950;2023-02-04T12:18:33;104001.03;;;1.96;100.00
13015;BME280;6573;57.696;11.950;2023-02-04T12:21:02;103999.00;;;1.92;100.00
13015;BME280;6573;57.696;11.950;2023-02-04T12:23:32;104005.84;;;2.02;100.00
13015;BME280;6573;57.696;11.950;2023-02-04T12:26:00;104000.78;;;2.13;100.00
13015;BME280;6573;57.696;11.950;2023-02-04T12:28:33;103997.22;;;2.23;100.00
13015;BME280;6573;57.696;11.950;2023-02-04T12:31:02;103998.47;;;2.38;100.00
13015;BME280;6573;57.696;11.950;2023-02-04T12:33:31;104000.53;;;2.42;100.00
13015;BME280;6573;57.696;11.950;2023-02-04T12:36:01;104005.44;;;2.17;100.00
13015;BME280;6573;57.696;11.950;2023-02-04T12:38:29;103994.06;;;1.95;100.00
13015;BME280;6573;57.696;11.950;2023-02-04T12:40:59;104004.69;;;1.98;100.00
13015;BME280;6573;57.696;11.950;2023-02-04T12:43:27;103991.69;;;2.08;100.00
13015;BME280;6573;57.696;11.950;2023-02-04T12:45:55;104005.72;;;2.10;100.00
13015;BME280;6573;57.696;11.950;2023-02-04T12:48:24;103994.53;;;2.01;100.00
13015;BME280;6573;57.696;11.950;2023-02-04T12:50:53;103996.13;;;1.99;100.00
13015;BME280;6573;57.696;11.950;2023-02-04T12:53:21;104003.66;;;1.96;100.00
13015;BME280;6573;57.696;11.950;2023-02-04T12:55:49;104009.63;;;1.95;100.00
13015;BME280;6573;57.696;11.950;2023-02-04T12:58:19;104008.06;;;2.07;100.00